Time;durP1;ratioP1;P1;durP2;ratioP2;P2;SDS_P1;SDS_P2;PMS_P1;PMS_P2;Temp;Humidity;BMP_temperature;BMP_pressure;BME280_temperature;BME280_humidity;BME280_pressure;Samples;Min_cycle;Max_cycle;Signal;HPM_P1;HPM_P2
2022/08/23 00:01:57;;;;;;;2.92;1.42;;;22.30;83.00;;;;;;5048271;28;20021;-78
2022/08/23 00:04:26;;;;;;;3.10;1.63;;;22.30;82.60;;;;;;5073498;28;20108;-78
2022/08/23 00:06:55;;;;;;;2.37;1.30;;;22.30;82.50;;;;;;5092607;28;20051;-78
2022/08/23 00:09:23;;;;;;;3.13;1.70;;;22.30;82.40;;;;;;5068335;28;20112;-78
2022/08/23 00:12:04;;;;;;;3.63;1.83;;;22.20;82.30;;;;;;5056850;28;20044;-78
2022/08/23 00:14:33;;;;;;;3.83;1.73;;;22.20;82.40;;;;;;5057097;28;20044;-78
2022/08/23 00:16:59;;;;;;;3.67;1.80;;;22.10;82.40;;;;;;5057804;28;20032;-78
2022/08/23 00:19:26;;;;;;;3.45;1.88;;;22.20;82.40;;;;;;5058559;28;20404;-78
2022/08/23 00:21:53;;;;;;;3.00;1.85;;;22.20;82.30;;;;;;5058583;28;20758;-78
2022/08/23 00:24:20;;;;;;;3.70;1.90;;;22.20;82.20;;;;;;5058384;28;20025;-78
2022/08/23 00:27:10;;;;;;;6.35;2.35;;;22.20;82.10;;;;;;5063369;28;20451;-78
2022/08/23 00:29:42;;;;;;;4.93;1.90;;;22.10;82.40;;;;;;5078598;28;20491;-78
2022/08/23 00:32:12;;;;;;;3.28;1.95;;;22.10;82.40;;;;;;5076261;28;20032;-78
2022/08/23 00:34:38;;;;;;;4.57;2.08;;;22.10;82.50;;;;;;5057829;28;20025;-78
2022/08/23 00:37:05;;;;;;;2.83;1.70;;;22.10;82.50;;;;;;5058032;28;20056;-78
2022/08/23 00:39:31;;;;;;;5.43;1.83;;;22.00;82.50;;;;;;5057960;28;20031;-78
2022/08/23 00:47:38;;;;;;;3.70;2.13;;;22.00;82.80;;;;;;5058021;28;20100;-78
2022/08/23 00:47:40;;;;;;;2.88;1.58;;;22.00;82.70;;;;;;5058081;28;20166;-78
2022/08/23 00:50:28;;;;;;;2.95;1.63;;;21.90;82.70;;;;;;5057824;28;20021;-78
2022/08/23 00:53:19;;;;;;;3.20;1.88;;;21.90;82.80;;;;;;5046893;28;20025;-78
2022/08/23 00:55:49;;;;;;;3.25;1.50;;;21.90;82.60;;;;;;5077211;28;20024;-79
2022/08/23 00:58:18;;;;;;;3.28;2.00;;;21.80;82.80;;;;;;5076485;28;20025;-78
2022/08/23 01:00:45;;;;;;;3.03;1.75;;;21.70;83.00;;;;;;5077680;28;20025;-78
2022/08/23 01:03:12;;;;;;;3.78;2.08;;;21.80;83.00;;;;;;5059533;28;20411;-78
2022/08/23 01:05:46;;;;;;;3.65;1.95;;;21.80;82.90;;;;;;5067298;28;20429;-78
2022/08/23 01:08:12;;;;;;;4.18;2.00;;;21.80;83.00;;;;;;5071741;28;20021;-78
2022/08/23 01:10:46;;;;;;;3.60;1.90;;;21.80;83.20;;;;;;5062834;28;20499;-78
2022/08/23 01:13:24;;;;;;;4.22;1.92;;;21.80;83.30;;;;;;5077061;28;20119;-78
2022/08/23 01:15:55;;;;;;;3.67;2.05;;;21.90;83.10;;;;;;5077287;28;20154;-78
2022/08/23 01:18:25;;;;;;;4.38;2.40;;;21.80;83.40;;;;;;5061436;28;20033;-78
2022/08/23 01:20:58;;;;;;;4.15;2.00;;;21.80;83.40;;;;;;5057408;28;20036;-78
2022/08/23 01:23:50;;;;;;;5.00;2.22;;;21.90;83.30;;;;;;5065341;28;20029;-78
2022/08/23 01:26:23;;;;;;;3.28;1.60;;;22.00;83.10;;;;;;5059458;28;20033;-78
2022/08/23 01:28:50;;;;;;;3.30;1.95;;;22.00;82.90;;;;;;5077190;28;20663;-78
2022/08/23 01:31:17;;;;;;;4.15;1.88;;;21.90;83.10;;;;;;5077079;28;20032;-78
2022/08/23 01:33:48;;;;;;;5.10;1.92;;;22.00;83.00;;;;;;5058853;28;20013;-78
2022/08/23 01:36:15;;;;;;;5.00;2.10;;;21.80;83.30;;;;;;5056941;28;20060;-78
2022/08/23 01:38:41;;;;;;;3.70;2.03;;;21.90;83.50;;;;;;5039178;28;20041;-78
2022/08/23 01:41:06;;;;;;;3.75;2.50;;;21.90;83.40;;;;;;5057248;28;20431;-78
2022/08/23 01:43:39;;;;;;;3.90;2.00;;;21.90;83.40;;;;;;5038806;28;20514;-78
2022/08/23 01:46:13;;;;;;;4.25;2.10;;;21.90;83.40;;;;;;5056560;28;20067;-78
2022/08/23 01:48:40;;;;;;;2.70;1.73;;;21.80;83.50;;;;;;5074421;28;20016;-78
2022/08/23 01:51:06;;;;;;;3.53;1.80;;;21.90;83.40;;;;;;5076521;28;20025;-78
2022/08/23 01:53:32;;;;;;;4.82;2.20;;;21.80;83.40;;;;;;5058531;28;20071;-78
2022/08/23 01:56:00;;;;;;;3.97;1.77;;;21.80;83.20;;;;;;5056820;28;20163;-78
2022/08/23 01:58:27;;;;;;;3.65;1.58;;;21.80;83.20;;;;;;5056662;28;20048;-78
2022/08/23 02:00:53;;;;;;;5.28;2.15;;;21.90;83.10;;;;;;5038532;28;20032;-78
2022/08/23 02:03:20;;;;;;;5.20;1.75;;;21.90;83.10;;;;;;5056259;28;20039;-78
2022/08/23 02:05:46;;;;;;;5.00;2.00;;;21.90;83.10;;;;;;5073541;28;20049;-78
2022/08/23 02:10:57;;;;;;;4.68;2.13;;;21.80;83.30;;;;;;5096710;28;20031;-78
2022/08/23 02:13:22;;;;;;;3.63;1.83;;;21.80;83.30;;;;;;5061779;28;20053;-78
2022/08/23 02:15:50;;;;;;;4.72;2.13;;;21.80;83.20;;;;;;5056066;28;20029;-78
2022/08/23 02:18:16;;;;;;;4.05;2.10;;;21.80;83.30;;;;;;5056215;28;20025;-78
2022/08/23 02:20:47;;;;;;;3.55;2.10;;;21.80;83.20;;;;;;5038487;28;20041;-78
2022/08/23 02:23:15;;;;;;;6.35;2.30;;;21.80;83.30;;;;;;5038172;28;20048;-78
2022/08/23 02:25:41;;;;;;;4.90;2.03;;;21.80;83.20;;;;;;5056000;28;20033;-78
2022/08/23 02:28:07;;;;;;;3.75;1.77;;;21.80;83.20;;;;;;5056018;28;20055;-78
2022/08/23 02:30:33;;;;;;;3.47;1.83;;;21.80;82.90;;;;;;5055869;28;20021;-78
2022/08/23 02:32:59;;;;;;;3.78;2.15;;;21.80;83.00;;;;;;5055936;28;20025;-78
2022/08/23 02:35:24;;;;;;;3.97;2.00;;;21.80;82.90;;;;;;5055477;28;20021;-77
2022/08/23 02:37:51;;;;;;;2.92;2.03;;;21.80;82.90;;;;;;5038012;28;20036;-78
2022/08/23 02:40:21;;;;;;;3.90;1.83;;;21.80;83.00;;;;;;5055728;28;20110;-78
2022/08/23 02:42:46;;;;;;;3.60;1.83;;;21.80;83.10;;;;;;5037814;28;20037;-78
2022/08/23 02:45:12;;;;;;;3.85;1.92;;;21.80;83.10;;;;;;5055740;28;20629;-78
2022/08/23 02:47:38;;;;;;;3.40;1.83;;;21.80;82.90;;;;;;5064565;28;20028;-78
2022/08/23 02:50:05;;;;;;;3.13;1.65;;;21.80;83.20;;;;;;5075593;28;20026;-78
2022/08/23 02:52:31;;;;;;;4.25;2.28;;;21.80;83.00;;;;;;5068117;28;20075;-78
2022/08/23 02:54:57;;;;;;;5.00;2.28;;;21.80;83.20;;;;;;5055479;28;20025;-78
2022/08/23 02:57:26;;;;;;;4.30;2.20;;;21.70;83.40;;;;;;5037827;28;20025;-78
2022/08/23 02:59:51;;;;;;;4.90;2.58;;;21.70;83.40;;;;;;5037593;28;20059;-78
2022/08/23 03:02:18;;;;;;;3.63;2.38;;;21.70;83.20;;;;;;5036929;28;20514;-78
2022/08/23 03:04:44;;;;;;;4.93;2.50;;;21.70;83.20;;;;;;5055435;28;20044;-78
2022/08/23 03:07:10;;;;;;;4.10;2.03;;;21.60;83.30;;;;;;5075494;28;20024;-78
2022/08/23 03:09:36;;;;;;;4.88;1.92;;;21.60;83.30;;;;;;5075441;28;20029;-78
2022/08/23 03:12:02;;;;;;;3.65;1.73;;;21.60;83.50;;;;;;5060832;28;20052;-78
2022/08/23 03:14:30;;;;;;;4.90;2.13;;;21.60;83.50;;;;;;5055455;28;20044;-78
2022/08/23 03:16:56;;;;;;;7.10;2.33;;;21.60;83.30;;;;;;5037256;28;20035;-78
2022/08/23 03:19:23;;;;;;;5.20;2.25;;;21.70;83.20;;;;;;5055135;28;20431;-78
2022/08/23 03:21:48;;;;;;;4.88;2.38;;;21.70;83.10;;;;;;5037424;28;20086;-78
2022/08/23 03:24:14;;;;;;;4.63;2.38;;;21.70;82.90;;;;;;5055127;28;20036;-78
2022/08/23 03:26:42;;;;;;;5.03;2.33;;;21.60;83.00;;;;;;5055165;28;20061;-78
2022/08/23 03:29:08;;;;;;;4.15;2.47;;;21.50;83.50;;;;;;5055250;28;20082;-78
2022/08/23 03:31:37;;;;;;;4.72;2.28;;;21.40;83.80;;;;;;5037373;28;20025;-78
2022/08/23 03:34:04;;;;;;;4.75;2.75;;;21.50;83.80;;;;;;5055188;28;20017;-78
2022/08/23 03:36:30;;;;;;;5.97;3.03;;;21.50;83.90;;;;;;5037350;28;20108;-78
2022/08/23 03:38:55;;;;;;;5.53;2.50;;;21.50;83.70;;;;;;5055090;28;20071;-78
2022/08/23 03:41:21;;;;;;;6.82;2.75;;;21.60;83.50;;;;;;5054956;28;20029;-78
2022/08/23 03:43:47;;;;;;;3.88;2.53;;;21.60;83.40;;;;;;5055102;28;20096;-78
2022/08/23 03:46:21;;;;;;;4.22;2.38;;;21.60;83.40;;;;;;5056152;28;20029;-78
2022/08/23 03:48:57;;;;;;;5.40;2.30;;;21.60;83.20;;;;;;5059131;28;20032;-78
2022/08/23 03:51:23;;;;;;;4.78;2.78;;;21.60;83.20;;;;;;5059171;28;20411;-78
2022/08/23 03:53:50;;;;;;;5.38;2.78;;;21.60;83.30;;;;;;5058409;28;20104;-78
2022/08/23 03:56:33;;;;;;;5.13;2.13;;;21.60;83.40;;;;;;5059094;28;20078;-78
2022/08/23 03:59:04;;;;;;;5.20;2.40;;;21.60;83.10;;;;;;5058761;28;20029;-78
2022/08/23 04:01:29;;;;;;;4.22;2.78;;;21.60;83.30;;;;;;5058806;28;20021;-78
2022/08/23 04:03:58;;;;;;;4.50;2.53;;;21.60;83.20;;;;;;5058620;28;20031;-78
2022/08/23 04:06:26;;;;;;;4.20;2.53;;;21.70;83.10;;;;;;5053013;28;20064;-78
2022/08/23 04:08:53;;;;;;;5.38;2.50;;;21.60;83.20;;;;;;5058587;28;20116;-78
2022/08/23 04:11:36;;;;;;;4.00;2.35;;;21.60;83.20;;;;;;5058192;28;20872;-78
2022/08/23 04:14:02;;;;;;;4.10;2.42;;;21.60;83.00;;;;;;5040711;28;20049;-78
2022/08/23 04:16:32;;;;;;;6.05;2.63;;;21.60;83.00;;;;;;5058363;28;20036;-78
2022/08/23 04:18:57;;;;;;;5.15;2.30;;;21.70;83.00;;;;;;5040652;28;20029;-78
2022/08/23 04:21:23;;;;;;;5.93;2.60;;;21.70;82.90;;;;;;5058386;28;20033;-79
2022/08/23 04:23:49;;;;;;;4.47;2.15;;;21.70;82.80;;;;;;5058334;28;20515;-78
2022/08/23 04:26:15;;;;;;;4.97;2.15;;;21.70;82.90;;;;;;5058269;28;20258;-78
2022/08/23 04:28:41;;;;;;;8.82;2.85;;;21.70;82.70;;;;;;5039972;28;20036;-78
2022/08/23 04:31:06;;;;;;;4.45;2.38;;;21.70;82.70;;;;;;5057933;28;20021;-78
2022/08/23 04:33:33;;;;;;;5.00;2.15;;;21.70;82.90;;;;;;5058538;28;20395;-78
2022/08/23 04:36:00;;;;;;;5.07;1.98;;;21.70;82.80;;;;;;5058229;28;20033;-78
2022/08/23 04:38:26;;;;;;;3.40;1.75;;;21.70;82.80;;;;;;5058082;28;20032;-78
2022/08/23 04:43:37;;;;;;;5.50;2.30;;;21.70;82.70;;;;;;5058134;28;20067;-78
2022/08/23 04:46:04;;;;;;;4.60;2.30;;;21.70;82.80;;;;;;5057742;28;20029;-79
2022/08/23 04:48:30;;;;;;;3.70;2.10;;;21.70;82.80;;;;;;5073997;28;20017;-77
2022/08/23 04:50:55;;;;;;;4.03;2.22;;;21.70;82.90;;;;;;5074317;28;20102;-78
2022/08/23 04:53:22;;;;;;;4.05;2.00;;;21.70;82.90;;;;;;5057719;28;20092;-78
2022/08/23 04:55:49;;;;;;;4.30;2.05;;;21.70;83.00;;;;;;5057582;28;20070;-78
2022/08/23 04:58:15;;;;;;;4.45;2.30;;;21.70;82.90;;;;;;5039565;28;20021;-78
2022/08/23 05:00:41;;;;;;;4.45;2.53;;;21.70;82.80;;;;;;5059986;28;20028;-82
2022/08/23 05:03:06;;;;;;;3.58;2.20;;;21.70;82.80;;;;;;5069351;28;20024;-82
2022/08/23 05:05:32;;;;;;;4.30;2.28;;;21.80;82.60;;;;;;5066806;28;20025;-84
2022/08/23 05:07:58;;;;;;;5.50;2.50;;;21.80;82.60;;;;;;5038703;28;20032;-82
2022/08/23 05:10:24;;;;;;;5.07;2.20;;;21.70;82.80;;;;;;5050587;28;20468;-86
2022/08/23 05:12:50;;;;;;;4.68;1.85;;;21.80;82.70;;;;;;5057138;28;20457;-84
2022/08/23 05:15:16;;;;;;;5.82;2.38;;;21.80;82.70;;;;;;5039820;28;20052;-85
2022/08/23 05:17:41;;;;;;;5.70;2.35;;;21.80;82.80;;;;;;5056973;28;20028;-85
2022/08/23 05:20:09;;;;;;;4.50;2.30;;;21.70;82.90;;;;;;5068275;28;20037;-84
2022/08/23 05:22:37;;;;;;;5.45;2.72;;;21.70;82.90;;;;;;5059414;28;20036;-84
2022/08/23 05:25:04;;;;;;;4.68;2.30;;;21.80;82.80;;;;;;5057831;28;20475;-84
2022/08/23 05:27:29;;;;;;;5.25;2.40;;;21.70;82.80;;;;;;5057232;28;20018;-84
2022/08/23 05:29:55;;;;;;;3.97;2.15;;;21.70;83.00;;;;;;5057024;28;20032;-84
2022/08/23 05:32:21;;;;;;;4.55;2.33;;;21.70;83.00;;;;;;5039215;28;20063;-84
2022/08/23 05:34:47;;;;;;;4.40;2.20;;;21.70;82.90;;;;;;5039151;28;20082;-89
2022/08/23 05:37:13;;;;;;;4.25;2.10;;;21.80;82.90;;;;;;5067597;28;20055;-80
2022/08/23 05:39:39;;;;;;;7.78;2.28;;;21.80;82.80;;;;;;5076960;28;20059;-79
2022/08/23 05:42:06;;;;;;;4.68;1.95;;;21.70;82.90;;;;;;5076548;28;20021;-85
2022/08/23 05:44:32;;;;;;;4.22;2.20;;;21.70;82.90;;;;;;5052124;28;20487;-85
2022/08/23 05:46:58;;;;;;;6.00;2.65;;;21.70;83.00;;;;;;5042651;28;20391;-81
2022/08/23 05:49:23;;;;;;;5.25;2.40;;;21.80;82.90;;;;;;5075298;28;20129;-80
2022/08/23 05:51:49;;;;;;;5.63;2.10;;;21.80;83.20;;;;;;5076631;28;20025;-80
2022/08/23 05:54:15;;;;;;;6.47;2.35;;;21.70;83.10;;;;;;5058458;28;20020;-80
2022/08/23 05:56:43;;;;;;;3.83;2.20;;;21.70;83.10;;;;;;5054456;28;20016;-80
2022/08/23 05:59:12;;;;;;;7.38;2.03;;;21.80;83.00;;;;;;5048319;28;20028;-80
2022/08/23 06:01:39;;;;;;;3.95;1.65;;;21.80;82.90;;;;;;5047784;28;20021;-81
2022/08/23 06:04:08;;;;;;;3.10;1.58;;;21.90;82.70;;;;;;5047650;28;20025;-81
2022/08/23 06:06:34;;;;;;;3.55;2.03;;;21.90;82.40;;;;;;5047149;28;20055;-80
2022/08/23 06:09:01;;;;;;;3.15;1.70;;;21.90;82.50;;;;;;5047733;28;20021;-80
2022/08/23 06:11:28;;;;;;;3.40;1.88;;;21.90;82.50;;;;;;5063971;28;20025;-81
2022/08/23 06:13:57;;;;;;;4.03;2.00;;;22.00;82.60;;;;;;5056277;28;20060;-80
2022/08/23 06:16:28;;;;;;;5.38;1.80;;;22.00;82.50;;;;;;5056572;28;20035;-81
2022/08/23 06:18:56;;;;;;;3.35;1.80;;;22.00;82.40;;;;;;5056353;28;20028;-80
2022/08/23 06:21:22;;;;;;;4.70;2.55;;;22.00;82.30;;;;;;5058505;28;20480;-81
2022/08/23 06:23:48;;;;;;;3.92;1.85;;;22.00;82.50;;;;;;5056259;28;20111;-80
2022/08/23 06:26:37;;;;;;;4.45;1.95;;;22.00;82.50;;;;;;5036826;28;20036;-80
2022/08/23 06:29:06;;;;;;;4.65;1.95;;;22.00;82.40;;;;;;5054255;28;20055;-80
2022/08/23 06:31:45;;;;;;;4.72;2.10;;;22.00;82.70;;;;;;5054301;28;20029;-81
2022/08/23 06:34:32;;;;;;;3.88;2.38;;;21.90;82.90;;;;;;5054157;28;20037;-80
2022/08/23 06:37:01;;;;;;;3.17;1.73;;;21.90;82.80;;;;;;5054693;28;20042;-80
2022/08/23 06:39:29;;;;;;;4.75;1.90;;;21.90;82.70;;;;;;5042403;28;20025;-80
2022/08/23 06:42:09;;;;;;;4.28;1.55;;;22.00;82.60;;;;;;5040367;28;20491;-80
2022/08/23 06:44:35;;;;;;;3.40;1.70;;;22.10;82.40;;;;;;5075888;28;20052;-80
2022/08/23 06:47:03;;;;;;;2.53;1.30;;;22.20;82.00;;;;;;5046868;28;20036;-80
2022/08/23 06:49:28;;;;;;;5.57;1.88;;;22.20;82.10;;;;;;5055872;28;20028;-80
2022/08/23 06:51:58;;;;;;;2.70;1.52;;;22.30;81.90;;;;;;5038175;28;20107;-81
2022/08/23 06:54:25;;;;;;;;;;;22.30;81.90;;;;;;5056088;28;20032;-80
2022/08/23 06:56:51;;;;;;;3.60;1.58;;;22.40;81.50;;;;;;5061457;28;19912;-79
2022/08/23 06:59:17;;;;;;;3.83;1.45;;;22.60;80.80;;;;;;5043239;28;20032;-80
2022/08/23 07:01:50;;;;;;;2.92;1.67;;;22.60;80.60;;;;;;5055562;28;20033;-80
2022/08/23 07:04:22;;;;;;;2.97;1.35;;;22.60;80.50;;;;;;5055681;28;20076;-83
2022/08/23 07:06:47;;;;;;;2.63;1.35;;;22.60;80.50;;;;;;5089869;28;20032;-78
2022/08/23 07:09:14;;;;;;;2.42;1.40;;;22.70;80.50;;;;;;5068885;28;20078;-78
2022/08/23 07:11:40;;;;;;;2.30;1.20;;;22.90;80.20;;;;;;5050004;28;20025;-81
2022/08/23 07:14:10;;;;;;;3.30;1.63;;;22.90;79.80;;;;;;5061326;28;20420;-79
2022/08/23 07:16:43;;;;;;;1.83;1.00;;;23.10;79.90;;;;;;5041006;28;20025;-79
2022/08/23 07:19:09;;;;;;;3.33;1.65;;;23.10;79.20;;;;;;5072438;28;20020;-79
2022/08/23 07:21:36;;;;;;;3.10;1.30;;;23.30;79.00;;;;;;5079003;28;20032;-80
2022/08/23 07:24:02;;;;;;;1.83;0.75;;;23.30;78.50;;;;;;5054985;28;20039;-79
2022/08/23 07:26:28;;;;;;;2.22;1.17;;;23.40;78.10;;;;;;5081775;28;20055;-80
2022/08/23 07:28:54;;;;;;;1.83;1.00;;;23.40;77.90;;;;;;5058610;28;20403;-79
2022/08/23 07:31:26;;;;;;;1.88;1.02;;;23.70;77.40;;;;;;5069552;28;20033;-79
2022/08/23 07:33:53;;;;;;;2.78;1.00;;;23.60;77.30;;;;;;5068761;28;20040;-79
2022/08/23 07:36:21;;;;;;;1.40;0.80;;;23.70;77.00;;;;;;5044693;28;20029;-79
2022/08/23 07:38:47;;;;;;;1.45;0.90;;;23.70;77.00;;;;;;5061134;28;20017;-79
2022/08/23 07:41:15;;;;;;;3.63;0.90;;;23.60;77.20;;;;;;5061316;28;20533;-79
2022/08/23 07:43:40;;;;;;;1.80;0.90;;;23.70;77.00;;;;;;5066603;28;20053;-78
2022/08/23 07:46:07;;;;;;;2.10;0.95;;;23.70;76.30;;;;;;5069971;28;20081;-79
2022/08/23 07:48:34;;;;;;;1.50;0.88;;;23.60;76.50;;;;;;5056302;28;20024;-79
2022/08/23 07:51:03;;;;;;;1.80;0.90;;;23.50;76.80;;;;;;5049919;28;20060;-79
2022/08/23 07:53:29;;;;;;;2.03;0.67;;;23.50;77.00;;;;;;5052780;28;20476;-79
2022/08/23 07:55:55;;;;;;;1.38;0.77;;;23.50;77.10;;;;;;5061347;28;20021;-78
2022/08/23 07:58:23;;;;;;;1.27;0.68;;;23.50;76.90;;;;;;5061127;28;20051;-79
2022/08/23 08:00:50;;;;;;;2.03;0.80;;;23.50;76.70;;;;;;5060806;28;20069;-78
2022/08/23 08:03:17;;;;;;;1.73;0.65;;;23.50;77.00;;;;;;5051741;28;20037;-79
2022/08/23 08:05:43;;;;;;;1.40;0.52;;;23.60;76.00;;;;;;5070356;28;20036;-79
2022/08/23 08:08:09;;;;;;;1.08;0.60;;;23.60;76.40;;;;;;5067836;28;20025;-79
2022/08/23 08:10:40;;;;;;;0.85;0.40;;;23.50;76.40;;;;;;5070092;28;20116;-78
2022/08/23 08:13:06;;;;;;;2.28;0.93;;;23.40;76.90;;;;;;5063111;28;20131;-78
2022/08/23 08:15:33;;;;;;;1.10;0.50;;;23.40;76.70;;;;;;5062930;28;20028;-79
2022/08/23 08:17:59;;;;;;;0.80;0.35;;;23.40;76.90;;;;;;5069934;28;20017;-78
2022/08/23 08:20:26;;;;;;;1.60;0.60;;;23.30;76.70;;;;;;5064850;28;20081;-79
2022/08/23 08:22:53;;;;;;;1.95;0.63;;;23.30;77.30;;;;;;5054244;28;20032;-78
2022/08/23 08:25:19;;;;;;;2.50;0.85;;;23.30;77.00;;;;;;5063997;28;20139;-79
2022/08/23 08:27:45;;;;;;;1.77;0.73;;;23.50;77.20;;;;;;5067291;28;20020;-78
2022/08/23 08:30:11;;;;;;;1.08;0.68;;;23.70;77.10;;;;;;5069657;28;20024;-79
2022/08/23 08:32:37;;;;;;;1.60;0.82;;;23.80;76.50;;;;;;5065120;28;20081;-79
2022/08/23 08:35:05;;;;;;;1.80;1.10;;;23.90;76.30;;;;;;5064440;28;20033;-78
2022/08/23 08:37:31;;;;;;;2.08;1.05;;;24.00;76.20;;;;;;5064431;28;20021;-79
2022/08/23 08:39:57;;;;;;;2.17;0.93;;;24.10;76.20;;;;;;5065915;28;20188;-79
2022/08/23 08:42:45;;;;;;;2.70;1.20;;;24.30;76.10;;;;;;5066619;28;20496;-79
2022/08/23 08:45:35;;;;;;;1.50;1.05;;;24.40;76.30;;;;;;5067638;28;20040;-79
2022/08/23 08:48:02;;;;;;;;;;;24.50;75.30;;;;;;5051833;28;20024;-78
2022/08/23 08:50:37;;;;;;;3.38;1.13;;;24.50;75.40;;;;;;5063311;28;19908;-78
2022/08/23 08:53:32;;;;;;;2.22;0.98;;;24.70;75.50;;;;;;5056879;28;20025;-78
2022/08/23 08:56:02;;;;;;;2.22;1.20;;;24.80;75.10;;;;;;5057870;28;20020;-79
2022/08/23 08:58:47;;;;;;;1.90;0.93;;;24.80;74.40;;;;;;5067925;28;20028;-78
2022/08/23 09:01:15;;;;;;;2.78;1.15;;;24.90;73.90;;;;;;5060049;28;20051;-78
2022/08/23 09:03:41;;;;;;;1.67;0.80;;;25.00;73.60;;;;;;5077954;28;20020;-79
2022/08/23 09:06:09;;;;;;;1.52;0.73;;;25.00;73.10;;;;;;5080825;28;20020;-79
2022/08/23 09:08:35;;;;;;;3.33;0.68;;;25.00;73.60;;;;;;5091273;28;20038;-78
2022/08/23 09:11:25;;;;;;;2.80;0.82;;;25.00;73.50;;;;;;5069740;28;20080;-78
2022/08/23 09:14:18;;;;;;;1.67;0.68;;;24.90;73.60;;;;;;5057770;28;20063;-79
2022/08/23 09:16:44;;;;;;;1.23;0.70;;;24.70;73.50;;;;;;5057208;28;20033;-79
2022/08/23 09:19:10;;;;;;;1.88;0.95;;;24.50;74.40;;;;;;5057414;28;20037;-78
2022/08/23 09:21:44;;;;;;;1.42;0.70;;;24.40;75.10;;;;;;5039672;28;20021;-79
2022/08/23 09:24:10;;;;;;;2.17;0.60;;;24.30;75.50;;;;;;5039586;28;20269;-79
2022/08/23 09:26:36;;;;;;;2.85;0.63;;;24.30;75.80;;;;;;5057839;28;20750;-79
2022/08/23 09:29:17;;;;;;;2.08;0.85;;;24.50;75.80;;;;;;5064055;28;20025;-79
2022/08/23 09:31:51;;;;;;;2.75;0.70;;;24.50;75.50;;;;;;5047072;28;20021;-79
2022/08/23 09:34:38;;;;;;;1.48;1.02;;;24.60;75.40;;;;;;5049271;28;20024;-80
2022/08/23 09:37:13;;;;;;;2.33;0.75;;;24.60;75.20;;;;;;5049882;28;20556;-79
2022/08/23 09:39:46;;;;;;;1.92;0.70;;;24.70;75.90;;;;;;5069849;28;20025;-77
2022/08/23 09:42:46;;;;;;;1.33;0.60;;;24.80;75.70;;;;;;5066094;28;20082;-79
2022/08/23 09:45:35;;;;;;;1.77;1.08;;;24.60;75.50;;;;;;5010436;28;20041;-79
2022/08/23 09:48:01;;;;;;;2.28;1.02;;;24.50;75.90;;;;;;5065720;28;20035;-80
2022/08/23 09:50:37;;;;;;;1.60;0.85;;;24.40;76.50;;;;;;5041489;28;20017;-79
2022/08/23 09:53:07;;;;;;;1.73;0.70;;;24.50;76.60;;;;;;5066509;28;20021;-79
2022/08/23 09:55:51;;;;;;;1.45;0.90;;;24.60;76.00;;;;;;5073037;28;20024;-79
2022/08/23 09:58:30;;;;;;;1.48;0.60;;;24.70;76.20;;;;;;5045206;28;20040;-79
2022/08/23 10:01:07;;;;;;;2.88;1.17;;;24.90;75.40;;;;;;5066752;28;20021;-79
2022/08/23 10:03:33;;;;;;;1.52;0.70;;;25.10;74.60;;;;;;5056673;28;20091;-78
2022/08/23 10:06:00;;;;;;;3.65;0.80;;;25.30;73.40;;;;;;5057202;28;20025;-78
2022/08/23 10:08:31;;;;;;;1.83;0.50;;;25.60;73.60;;;;;;5058930;28;20395;-78
2022/08/23 10:11:09;;;;;;;2.17;0.50;;;25.80;72.10;;;;;;5063802;28;20012;-78
2022/08/23 10:13:37;;;;;;;0.93;0.40;;;26.20;71.10;;;;;;5075529;28;20094;-78
2022/08/23 10:16:22;;;;;;;0.85;0.43;;;25.90;70.80;;;;;;5052691;28;20025;-78
2022/08/23 10:18:53;;;;;;;1.23;0.30;;;25.80;71.20;;;;;;5038752;28;20028;-78
2022/08/23 10:21:27;;;;;;;3.28;0.80;;;25.60;70.10;;;;;;5064135;28;20442;-78
2022/08/23 10:24:07;;;;;;;1.17;0.63;;;25.30;71.10;;;;;;5066077;28;20402;-78
2022/08/23 10:26:34;;;;;;;2.47;0.63;;;25.10;72.50;;;;;;5066808;28;20099;-78
2022/08/23 10:29:42;;;;;;;1.08;0.50;;;24.90;73.30;;;;;;5049893;28;20100;-78
2022/08/23 10:32:35;;;;;;;1.23;0.70;;;24.70;73.70;;;;;;4967561;28;20019;-78
2022/08/23 10:35:28;;;;;;;2.50;0.63;;;24.60;74.40;;;;;;4956005;28;20058;-79
2022/08/23 10:38:12;;;;;;;1.23;0.50;;;24.60;74.80;;;;;;5048933;28;20041;-79
2022/08/23 10:41:15;;;;;;;0.50;0.30;;;24.50;75.00;;;;;;5065163;28;20158;-79
2022/08/23 10:44:03;;;;;;;0.80;0.25;;;24.40;74.10;;;;;;5039496;28;20565;-79
2022/08/23 10:46:32;;;;;;;0.80;0.40;;;24.40;74.40;;;;;;5047330;28;20033;-79
2022/08/23 10:49:01;;;;;;;2.70;0.60;;;24.40;73.80;;;;;;5064765;28;20028;-79
2022/08/23 10:51:35;;;;;;;0.55;0.20;;;24.40;74.20;;;;;;5044771;28;20033;-78
2022/08/23 10:54:07;;;;;;;0.70;0.45;;;24.50;73.80;;;;;;5055811;28;20017;-79
2022/08/23 10:56:34;;;;;;;1.20;0.70;;;24.60;73.50;;;;;;5055884;28;20025;-78
2022/08/23 10:59:19;;;;;;;0.75;0.40;;;24.70;73.40;;;;;;5055275;28;20017;-80
2022/08/23 11:02:23;;;;;;;0.80;0.40;;;24.80;73.30;;;;;;5049975;28;20036;-78
2022/08/23 11:05:07;;;;;;;1.27;0.60;;;24.90;73.10;;;;;;5048247;28;20037;-78
2022/08/23 11:07:34;;;;;;;0.80;0.43;;;25.00;72.70;;;;;;5043910;28;20032;-78
2022/08/23 11:10:08;;;;;;;1.27;0.65;;;25.20;72.60;;;;;;5041312;28;20063;-78
2022/08/23 11:12:56;;;;;;;0.50;0.20;;;25.20;72.60;;;;;;5050943;28;20040;-78
2022/08/23 11:15:56;;;;;;;1.73;0.40;;;25.20;72.00;;;;;;5074483;28;20391;-78
2022/08/23 11:18:42;;;;;;;0.77;0.30;;;25.30;71.50;;;;;;5060300;28;20016;-78
2022/08/23 11:21:17;;;;;;;0.40;0.20;;;25.30;70.40;;;;;;5074342;28;20123;-78
2022/08/23 11:24:15;;;;;;;0.40;0.28;;;25.30;71.30;;;;;;5069750;28;20024;-77
2022/08/23 11:26:43;;;;;;;0.98;0.20;;;25.30;70.40;;;;;;5003393;28;20070;-78
2022/08/23 11:29:09;;;;;;;1.77;0.40;;;25.30;70.40;;;;;;5074448;28;20029;-80
2022/08/23 11:32:02;;;;;;;1.80;0.43;;;25.40;70.70;;;;;;5052736;28;20031;-78
2022/08/23 11:34:58;;;;;;;0.60;0.30;;;25.50;70.80;;;;;;5061349;28;20035;-78
2022/08/23 11:37:48;;;;;;;0.43;0.20;;;25.70;70.30;;;;;;5062174;28;20021;-78
2022/08/23 11:40:16;;;;;;;2.05;0.20;;;25.70;69.50;;;;;;5061743;28;20025;-79
2022/08/23 11:42:41;;;;;;;0.68;0.30;;;25.90;69.30;;;;;;5062283;28;20052;-79
2022/08/23 11:45:21;;;;;;;1.63;0.30;;;26.00;68.60;;;;;;5044021;28;20495;-79
2022/08/23 11:47:52;;;;;;;0.80;0.40;;;26.00;68.50;;;;;;5060499;28;20029;-79
2022/08/23 11:50:31;;;;;;;0.63;0.25;;;25.90;68.50;;;;;;5048155;28;20028;-79
2022/08/23 11:53:08;;;;;;;1.65;0.43;;;25.80;68.80;;;;;;5057405;28;20024;-79
2022/08/23 11:56:05;;;;;;;0.38;0.22;;;25.70;69.20;;;;;;5062876;28;20056;-79
2022/08/23 11:58:43;;;;;;;5.35;0.50;;;25.70;69.50;;;;;;5045360;28;20033;-79
2022/08/23 12:01:12;;;;;;;2.45;0.70;;;25.70;69.10;;;;;;5066106;28;20025;-79
2022/08/23 12:03:51;;;;;;;2.00;0.40;;;25.80;69.20;;;;;;5063910;28;20048;-78
2022/08/23 12:06:35;;;;;;;0.80;0.40;;;25.80;69.50;;;;;;5066643;28;20021;-79
2022/08/23 12:09:10;;;;;;;1.15;0.30;;;25.80;69.40;;;;;;5049422;28;20027;-79
2022/08/23 12:11:54;;;;;;;0.70;0.40;;;25.70;69.00;;;;;;5065181;28;20103;-79
2022/08/23 12:14:32;;;;;;;0.57;0.30;;;25.70;69.80;;;;;;5049138;28;20044;-79
2022/08/23 12:17:01;;;;;;;0.50;0.20;;;25.70;70.20;;;;;;5051212;28;20081;-79
2022/08/23 12:19:38;;;;;;;0.70;0.32;;;25.70;69.70;;;;;;5047463;28;20036;-80
2022/08/23 12:22:15;;;;;;;1.67;0.40;;;25.80;69.70;;;;;;5069071;28;20043;-79
2022/08/23 12:25:03;;;;;;;0.90;0.38;;;25.80;69.90;;;;;;5067984;28;20021;-80
2022/08/23 12:27:44;;;;;;;1.00;0.40;;;25.90;69.50;;;;;;5061623;28;20029;-79
2022/08/23 12:30:32;;;;;;;0.80;0.30;;;26.10;67.80;;;;;;5058595;28;20033;-79
2022/08/23 12:33:03;;;;;;;0.73;0.38;;;26.50;68.20;;;;;;5058026;28;20053;-79
2022/08/23 12:35:52;;;;;;;1.00;0.40;;;26.70;66.80;;;;;;5058674;28;20507;-79
2022/08/23 12:38:50;;;;;;;1.08;0.30;;;26.80;65.80;;;;;;5058412;28;20029;-79
2022/08/23 12:41:27;;;;;;;0.57;0.28;;;26.80;65.60;;;;;;5047130;28;20048;-79
2022/08/23 12:43:57;;;;;;;0.77;0.50;;;26.70;65.70;;;;;;5058198;28;20083;-79
2022/08/23 12:46:33;;;;;;;0.82;0.50;;;26.80;66.50;;;;;;5058105;28;20109;-77
2022/08/23 12:49:00;;;;;;;0.88;0.38;;;26.80;65.40;;;;;;5061374;28;20507;-78
2022/08/23 12:51:26;;;;;;;0.65;0.30;;;26.80;65.80;;;;;;5060046;28;20103;-77
2022/08/23 12:53:52;;;;;;;1.10;0.50;;;26.90;64.90;;;;;;5063850;28;20071;-77
2022/08/23 12:56:24;;;;;;;1.23;0.30;;;27.00;64.30;;;;;;5039840;28;20022;-77
2022/08/23 12:58:58;;;;;;;0.90;0.30;;;27.00;64.10;;;;;;5063771;28;20037;-77
2022/08/23 13:01:37;;;;;;;0.65;0.32;;;27.00;64.30;;;;;;5065072;28;20108;-78
2022/08/23 13:04:05;;;;;;;0.82;0.40;;;27.00;64.70;;;;;;5067991;28;20435;-77
2022/08/23 13:06:35;;;;;;;0.73;0.30;;;27.00;64.20;;;;;;5067467;28;20021;-78
2022/08/23 13:09:19;;;;;;;0.63;0.30;;;26.90;65.10;;;;;;5048300;28;20040;-78
2022/08/23 13:11:46;;;;;;;4.30;0.50;;;26.80;64.60;;;;;;5053884;28;20024;-77
2022/08/23 13:14:30;;;;;;;1.90;0.50;;;26.70;64.90;;;;;;5075917;28;20049;-77
2022/08/23 13:16:58;;;;;;;1.20;0.32;;;26.70;65.50;;;;;;5058644;28;20025;-77
2022/08/23 13:19:30;;;;;;;1.27;0.38;;;26.60;64.70;;;;;;5057302;28;20049;-78